Time;durP1;ratioP1;P1;durP2;ratioP2;P2;SDS_P1;SDS_P2;PMS_P1;PMS_P2;Temp;Humidity;BMP_temperature;BMP_pressure;BME280_temperature;BME280_humidity;BME280_pressure;Samples;Min_cycle;Max_cycle;Signal;HPM_P1;HPM_P2
2021/06/25 06:55:59;;;;;;;;;;;;;;;20.53;53.36;101468.84;5105575;27;1176952;-58
2021/06/25 06:58:24;;;;;;;;;;;;;;;20.56;53.20;101468.56;5122182;28;1581;-58
2021/06/25 07:00:49;;;;;;;;;;;;;;;20.59;53.58;101470.13;5126810;28;1520;-58
2021/06/25 07:03:14;;;;;;;;;;;;;;;20.57;53.26;101467.56;5124305;28;1716;-58
2021/06/25 07:05:39;;;;;;;;;;;;;;;20.58;53.83;101474.69;5128269;28;1466;-58
2021/06/25 07:08:04;;;;;;;;;;;;;;;20.58;53.98;101471.97;5116375;28;1569;-59
2021/06/25 07:10:29;;;;;;;;;;;;;;;20.60;53.25;101479.97;5133117;28;1427;-59
2021/06/25 07:12:55;;;;;;;;;;;;;;;20.59;54.09;101479.09;5123160;28;1713;-59
2021/06/25 07:15:20;;;;;;;;;;;;;;;20.60;53.99;101474.53;5125992;28;1913;-58
2021/06/25 07:17:45;;;;;;;;;;;;;;;20.61;53.48;101473.50;5130136;28;1547;-59
2021/06/25 07:20:10;;;;;;;;;;;;;;;20.61;53.79;101470.78;5130475;28;2568;-58
2021/06/25 07:22:35;;;;;;;;;;;;;;;20.61;54.13;101471.66;5124829;28;1559;-59
2021/06/25 07:25:00;;;;;;;;;;;;;;;20.62;54.40;101469.78;5128252;28;1692;-58
2021/06/25 07:27:25;;;;;;;;;;;;;;;20.60;52.66;101469.13;5120341;28;1641;-59
2021/06/25 07:29:50;;;;;;;;;;;;;;;20.57;54.28;101464.84;5120805;28;1902;-58
2021/06/25 07:32:16;;;;;;;;;;;;;;;20.59;53.74;101472.84;5124737;28;1890;-57
2021/06/25 07:34:41;;;;;;;;;;;;;;;20.62;53.81;101472.50;5131016;28;1958;-59
2021/06/25 07:37:06;;;;;;;;;;;;;;;20.64;54.09;101476.78;5125830;28;1736;-58
2021/06/25 07:39:31;;;;;;;;;;;;;;;20.65;53.77;101472.22;5129444;28;1570;-58
2021/06/25 07:41:56;;;;;;;;;;;;;;;20.64;54.94;101484.06;5132720;28;1728;-59
2021/06/25 07:44:21;;;;;;;;;;;;;;;20.65;54.33;101485.75;5120871;28;1866;-59
2021/06/25 07:46:46;;;;;;;;;;;;;;;20.65;53.31;101486.59;5112478;28;866;-60
2021/06/25 07:49:11;;;;;;;;;;;;;;;20.66;53.22;101490.16;5112634;28;840;-59
2021/06/25 07:51:37;;;;;;;;;;;;;;;20.66;53.54;101482.03;5111694;28;846;-59
2021/06/25 07:54:02;;;;;;;;;;;;;;;20.69;53.84;101484.47;5112985;28;1956;-59
2021/06/25 07:56:27;;;;;;;;;;;;;;;20.68;54.38;101491.72;5132881;27;1782;-59
2021/06/25 07:58:53;;;;;;;;;;;;;;;20.68;53.34;101490.88;5147405;27;1800;-59
2021/06/25 08:01:21;;;;;;;;;;;;;;;20.70;53.60;101480.75;5153143;27;848;-59
2021/06/25 08:03:46;;;;;;;;;;;;;;;20.70;54.00;101478.91;5153660;27;920;-59
2021/06/25 08:06:12;;;;;;;;;;;;;;;20.72;54.00;101476.03;5146326;27;925;-59
2021/06/25 08:08:37;;;;;;;;;;;;;;;20.72;53.57;101478.75;5127973;27;1968;-59
2021/06/25 08:11:02;;;;;;;;;;;;;;;20.74;53.75;101471.34;5118667;28;953;-59
2021/06/25 08:13:27;;;;;;;;;;;;;;;20.76;53.74;101470.19;5118502;28;834;-59
2021/06/25 08:15:52;;;;;;;;;;;;;;;20.80;52.67;101470.72;5117945;28;1967;-59
2021/06/25 08:18:17;;;;;;;;;;;;;;;20.87;53.25;101465.56;5099567;28;2482;-59
2021/06/25 08:20:42;;;;;;;;;;;;;;;20.93;52.18;101463.09;5128588;27;1710;-59
2021/06/25 08:23:07;;;;;;;;;;;;;;;21.06;53.58;101460.03;5138325;27;905;-59
2021/06/25 08:25:32;;;;;;;;;;;;;;;21.11;52.39;101463.97;5138426;27;877;-59
2021/06/25 08:27:58;;;;;;;;;;;;;;;21.15;52.64;101465.34;5138523;27;1000;-59
2021/06/25 08:30:24;;;;;;;;;;;;;;;21.22;52.51;101465.66;5138171;27;845;-59
2021/06/25 08:32:49;;;;;;;;;;;;;;;21.27;51.64;101467.91;5125432;27;1692;-59
2021/06/25 08:35:14;;;;;;;;;;;;;;;21.29;52.26;101465.91;5117227;28;1969;-59
2021/06/25 08:37:40;;;;;;;;;;;;;;;21.30;52.60;101462.19;5117696;28;902;-59
2021/06/25 08:40:06;;;;;;;;;;;;;;;21.30;52.17;101468.44;5117793;28;842;-59
2021/06/25 08:42:31;;;;;;;;;;;;;;;21.31;52.28;101467.44;5117796;28;833;-58
2021/06/25 08:44:56;;;;;;;;;;;;;;;21.37;52.94;101457.81;5130411;27;1581;-59
2021/06/25 08:47:21;;;;;;;;;;;;;;;21.38;52.10;101462.25;5137500;27;1694;-58
2021/06/25 08:49:47;;;;;;;;;;;;;;;21.40;52.79;101455.66;5137545;27;1515;-58
2021/06/25 08:52:13;;;;;;;;;;;;;;;21.46;52.55;101454.19;5138160;27;791;-58
2021/06/25 08:54:38;;;;;;;;;;;;;;;21.50;52.49;101450.13;5137691;27;1898;-58
2021/06/25 08:57:08;;;;;;;;;;;;;;;21.52;52.63;101447.28;5125674;27;1676;-58
2021/06/25 08:59:33;;;;;;;;;;;;;;;21.52;52.27;101450.00;5123474;27;1769;-58
2021/06/25 09:01:58;;;;;;;;;;;;;;;21.53;52.30;101444.41;5137078;27;1434;-59
2021/06/25 09:04:25;;;;;;;;;;;;;;;21.56;52.57;101446.81;5137597;27;1690;-58
2021/06/25 09:06:50;;;;;;;;;;;;;;;21.52;52.33;101442.72;5137432;27;1788;-58
2021/06/25 09:09:17;;;;;;;;;;;;;;;21.51;52.26;101441.00;5134473;27;1823;-58
2021/06/25 09:11:43;;;;;;;;;;;;;;;21.52;53.05;101450.00;5137146;27;1724;-58
2021/06/25 09:14:08;;;;;;;;;;;;;;;21.51;53.05;101441.00;5137819;27;1969;-58
2021/06/25 09:16:33;;;;;;;;;;;;;;;21.44;53.55;101437.22;5137267;27;1696;-58
2021/06/25 09:18:58;;;;;;;;;;;;;;;21.38;53.46;101437.84;5136677;27;801;-60
2021/06/25 09:21:23;;;;;;;;;;;;;;;21.45;53.70;101441.66;5119204;27;869;-60
2021/06/25 09:23:49;;;;;;;;;;;;;;;21.49;53.54;101434.91;5137603;27;869;-58
2021/06/25 09:26:15;;;;;;;;;;;;;;;21.53;53.04;101430.84;5137537;27;1060;-58
2021/06/25 09:28:40;;;;;;;;;;;;;;;21.53;52.52;101433.56;5128595;27;1614;-59
2021/06/25 09:31:05;;;;;;;;;;;;;;;21.57;52.54;101439.53;5136461;27;1763;-58
2021/06/25 09:33:31;;;;;;;;;;;;;;;21.60;53.07;101448.22;5137346;27;1184;-59
2021/06/25 09:35:56;;;;;;;;;;;;;;;21.62;52.93;101440.78;5117701;27;1956;-60
2021/06/25 09:38:21;;;;;;;;;;;;;;;21.66;52.36;101446.75;5137451;27;918;-59
2021/06/25 09:40:46;;;;;;;;;;;;;;;21.64;52.71;101437.91;5137331;27;1656;-59
2021/06/25 09:43:11;;;;;;;;;;;;;;;21.67;53.09;101430.31;5137254;27;1635;-58
2021/06/25 09:45:36;;;;;;;;;;;;;;;21.67;52.58;101438.47;5136727;27;1752;-58
2021/06/25 09:48:01;;;;;;;;;;;;;;;21.67;53.33;101429.47;5137026;27;866;-59
2021/06/25 09:50:26;;;;;;;;;;;;;;;21.67;52.95;101430.31;5137236;27;821;-59
2021/06/25 09:52:52;;;;;;;;;;;;;;;21.66;52.45;101431.31;5136941;27;1017;-59
2021/06/25 09:55:17;;;;;;;;;;;;;;;21.66;52.77;101434.03;5137638;27;1906;-59
2021/06/25 09:57:42;;;;;;;;;;;;;;;21.68;52.80;101431.13;5131924;27;1961;-59
2021/06/25 10:00:22;;;;;;;;;;;;;;;21.68;53.16;101432.00;5097580;28;1525;-58
2021/06/25 10:02:47;;;;;;;;;;;;;;;21.67;53.10;101429.47;5098173;28;890;-59
2021/06/25 10:05:12;;;;;;;;;;;;;;;21.64;53.35;101422.50;5122041;27;1529;-59
2021/06/25 10:07:37;;;;;;;;;;;;;;;21.63;52.71;101425.34;5119855;27;1543;-59
2021/06/25 10:10:06;;;;;;;;;;;;;;;21.65;53.22;101416.06;5115714;28;1029;-59
2021/06/25 10:12:31;;;;;;;;;;;;;;;21.65;53.01;101426.91;5115879;28;953;-58
2021/06/25 10:14:57;;;;;;;;;;;;;;;21.68;52.83;101426.56;5131205;27;1917;-58
2021/06/25 10:17:22;;;;;;;;;;;;;;;21.72;52.72;101419.81;5136402;27;870;-61
2021/06/25 10:19:47;;;;;;;;;;;;;;;21.74;52.67;101411.53;5118015;27;1686;-59
2021/06/25 10:22:12;;;;;;;;;;;;;;;21.72;52.84;101419.81;5136729;27;1004;-58
2021/06/25 10:24:37;;;;;;;;;;;;;;;21.75;52.74;101415.94;5135681;27;1547;-59
2021/06/25 10:27:02;;;;;;;;;;;;;;;21.77;52.37;101417.50;5136283;27;913;-58
2021/06/25 10:29:27;;;;;;;;;;;;;;;21.76;52.75;101415.78;5136586;27;866;-59
2021/06/25 10:31:52;;;;;;;;;;;;;;;21.76;52.84;101426.63;5136271;27;873;-59
2021/06/25 10:34:18;;;;;;;;;;;;;;;21.75;53.10;101413.22;5131913;27;1910;-59
2021/06/25 10:36:43;;;;;;;;;;;;;;;21.73;53.09;101413.38;5124814;27;1628;-59
2021/06/25 10:39:08;;;;;;;;;;;;;;;21.79;53.24;101410.06;5135776;27;1742;-59
2021/06/25 10:41:33;;;;;;;;;;;;;;;21.80;52.75;101419.91;5136215;27;1720;-59
2021/06/25 10:43:59;;;;;;;;;;;;;;;21.83;53.18;101422.31;5119996;27;1847;-59
2021/06/25 10:46:24;;;;;;;;;;;;;;;21.83;52.78;101424.16;5136128;27;1734;-60
2021/06/25 10:48:49;;;;;;;;;;;;;;;21.84;52.90;101428.56;5132072;27;1845;-58
2021/06/25 10:51:15;;;;;;;;;;;;;;;21.87;53.17;101427.38;5132117;27;1767;-58
2021/06/25 10:53:40;;;;;;;;;;;;;;;21.92;53.16;101430.47;5135803;28;1733;-59
2021/06/25 10:56:05;;;;;;;;;;;;;;;21.93;53.05;101426.75;5135175;27;1894;-59
2021/06/25 10:58:31;;;;;;;;;;;;;;;21.96;52.97;101426.44;5136341;27;842;-59
2021/06/25 11:00:57;;;;;;;;;;;;;;;21.97;52.89;101433.56;5117700;27;1610;-57
2021/06/25 11:03:22;;;;;;;;;;;;;;;21.93;53.50;101429.47;5119844;28;1983;-58
2021/06/25 11:05:47;;;;;;;;;;;;;;;21.96;52.91;101424.59;5097564;28;1542;-59
2021/06/25 11:08:12;;;;;;;;;;;;;;;21.93;53.44;101430.31;5122148;28;1728;-58
2021/06/25 11:10:37;;;;;;;;;;;;;;;21.91;53.67;101434.19;5134547;28;1626;-59
2021/06/25 11:13:02;;;;;;;;;;;;;;;21.93;53.45;101432.19;5132778;28;1627;-59
2021/06/25 11:15:27;;;;;;;;;;;;;;;21.89;53.98;101437.06;5135329;28;1968;-59
2021/06/25 11:17:53;;;;;;;;;;;;;;;21.90;54.25;101437.94;5130761;28;1414;-59
2021/06/25 11:20:18;;;;;;;;;;;;;;;21.85;54.23;101437.56;5132611;28;1698;-59
2021/06/25 11:22:43;;;;;;;;;;;;;;;21.87;54.11;101443.66;5135259;28;1450;-60
2021/06/25 11:25:08;;;;;;;;;;;;;;;21.91;53.80;101439.63;5135921;28;1603;-59
2021/06/25 11:27:33;;;;;;;;;;;;;;;21.92;53.82;101444.06;5117262;28;1492;-59
2021/06/25 11:29:58;;;;;;;;;;;;;;;21.91;54.56;101432.34;5135703;28;1724;-60
2021/06/25 11:32:23;;;;;;;;;;;;;;;21.94;53.64;101436.59;5131832;28;1483;-59
2021/06/25 11:34:48;;;;;;;;;;;;;;;21.97;53.95;101439.00;5135434;28;1961;-59
2021/06/25 11:37:14;;;;;;;;;;;;;;;21.99;54.36;101437.00;5133482;27;1126;-61
2021/06/25 11:39:39;;;;;;;;;;;;;;;21.99;54.54;101439.69;5134896;28;1571;-60
2021/06/25 11:42:04;;;;;;;;;;;;;;;21.97;54.32;101439.00;5137860;27;841;-60
2021/06/25 11:44:29;;;;;;;;;;;;;;;21.98;54.32;101435.28;5120355;27;1274;-60
2021/06/25 11:46:55;;;;;;;;;;;;;;;21.92;54.29;101436.75;5138870;27;1265;-60
2021/06/25 11:49:20;;;;;;;;;;;;;;;21.90;54.12;101432.50;5124510;27;1467;-59
2021/06/25 11:51:45;;;;;;;;;;;;;;;21.91;54.17;101429.63;5120308;27;1372;-60
2021/06/25 11:54:10;;;;;;;;;;;;;;;21.89;54.70;101438.94;5139208;27;1931;-58
2021/06/25 11:56:35;;;;;;;;;;;;;;;21.87;54.36;101438.22;5120076;27;1379;-59
2021/06/25 11:59:01;;;;;;;;;;;;;;;21.84;54.85;101439.44;5124427;27;1558;-59
2021/06/25 12:01:26;;;;;;;;;;;;;;;21.90;54.38;101435.22;5135591;27;1449;-60
2021/06/25 12:03:51;;;;;;;;;;;;;;;21.96;54.58;101437.31;5138414;27;1456;-60
2021/06/25 12:06:16;;;;;;;;;;;;;;;21.93;54.27;101437.63;5116625;27;1610;-60
2021/06/25 12:08:41;;;;;;;;;;;;;;;21.94;54.15;101436.59;5137810;27;1352;-60
2021/06/25 12:11:06;;;;;;;;;;;;;;;21.88;54.43;101442.66;5138122;27;1624;-60
2021/06/25 12:13:32;;;;;;;;;;;;;;;21.83;54.71;101445.88;5138094;27;1383;-59
2021/06/25 12:15:57;;;;;;;;;;;;;;;21.84;54.27;101444.84;5138176;27;1974;-60
2021/06/25 12:18:22;;;;;;;;;;;;;;;21.86;54.59;101450.94;5119285;27;1478;-60
2021/06/25 12:20:47;;;;;;;;;;;;;;;21.87;54.54;101451.81;5138406;27;1000;-59
2021/06/25 12:23:13;;;;;;;;;;;;;;;21.89;54.85;101457.94;5138841;27;1267;-59
2021/06/25 12:25:39;;;;;;;;;;;;;;;21.83;54.32;101460.28;5138284;27;825;-59
2021/06/25 12:28:04;;;;;;;;;;;;;;;21.79;54.68;101460.75;5118597;27;1704;-58
2021/06/25 12:30:29;;;;;;;;;;;;;;;21.80;54.82;101457.03;5099289;28;1310;-59
2021/06/25 12:32:54;;;;;;;;;;;;;;;21.78;54.85;101461.75;5099780;28;1143;-59
2021/06/25 12:35:19;;;;;;;;;;;;;;;21.74;55.21;101471.22;5118094;28;1956;-58
2021/06/25 12:37:46;;;;;;;;;;;;;;;21.69;55.17;101473.53;5118677;27;1607;-59
2021/06/25 12:40:11;;;;;;;;;;;;;;;21.66;55.37;101474.72;5137977;27;2158;-58
2021/06/25 12:42:36;;;;;;;;;;;;;;;21.71;55.67;101469.66;5137685;27;1527;-59
2021/06/25 12:45:01;;;;;;;;;;;;;;;21.78;55.32;101464.47;5137575;27;1452;-58
2021/06/25 12:47:26;;;;;;;;;;;;;;;21.78;55.34;101473.47;5137487;27;1527;-59
2021/06/25 12:49:51;;;;;;;;;;;;;;;21.74;55.36;101472.06;5118707;27;1667;-59
2021/06/25 12:52:17;;;;;;;;;;;;;;;21.74;55.13;101477.50;5137966;27;1342;-59
2021/06/25 12:54:43;;;;;;;;;;;;;;;21.74;55.51;101469.34;5136785;27;1920;-60
2021/06/25 12:57:08;;;;;;;;;;;;;;;21.78;55.26;101472.63;5137455;27;1452;-59
2021/06/25 12:59:33;;;;;;;;;;;;;;;21.78;55.04;101475.31;5138256;27;810;-58
2021/06/25 13:01:59;;;;;;;;;;;;;;;21.80;55.67;101476.88;5112114;27;1581;-58
2021/06/25 13:04:25;;;;;;;;;;;;;;;21.82;55.53;101471.28;5137886;27;868;-58
2021/06/25 13:06:51;;;;;;;;;;;;;;;21.81;55.07;101470.44;5137810;27;956;-59
2021/06/25 13:09:16;;;;;;;;;;;;;;;21.83;55.62;101473.84;5138293;27;855;-58
2021/06/25 13:11:41;;;;;;;;;;;;;;;21.89;55.13;101468.78;5137669;27;1728;-59
2021/06/25 13:14:06;;;;;;;;;;;;;;;21.94;55.26;101466.47;5134025;27;1913;-59
2021/06/25 13:16:31;;;;;;;;;;;;;;;21.99;54.77;101464.97;5136924;27;1834;-60
2021/06/25 13:18:57;;;;;;;;;;;;;;;22.01;54.79;101463.00;5137391;27;1706;-58
2021/06/25 13:21:22;;;;;;;;;;;;;;;22.04;54.69;101469.94;5137268;27;1438;-58
2021/06/25 13:23:47;;;;;;;;;;;;;;;22.04;54.67;101461.81;5137510;27;1701;-58
2021/06/25 13:26:12;;;;;;;;;;;;;;;22.00;55.26;101460.44;5119288;27;1819;-58
2021/06/25 13:28:37;;;;;;;;;;;;;;;21.98;55.08;101463.28;5119672;27;1715;-58
2021/06/25 13:31:02;;;;;;;;;;;;;;;21.99;55.34;101458.69;5137272;27;850;-58
2021/06/25 13:33:27;;;;;;;;;;;;;;;21.98;55.07;101468.72;5137190;27;1596;-58
2021/06/25 13:35:52;;;;;;;;;;;;;;;22.00;54.90;101452.28;5135951;27;1956;-58
2021/06/25 13:38:20;;;;;;;;;;;;;;;22.00;54.57;101463.16;5116754;28;853;-58
2021/06/25 13:40:45;;;;;;;;;;;;;;;22.04;55.26;101450.94;5116989;28;772;-58
2021/06/25 13:43:10;;;;;;;;;;;;;;;22.06;55.08;101451.63;5117419;27;1570;-58
2021/06/25 13:45:35;;;;;;;;;;;;;;;22.08;55.28;101444.19;5132928;27;1379;-58
2021/06/25 13:48:00;;;;;;;;;;;;;;;22.11;54.82;101458.31;5134939;27;1579;-59
2021/06/25 13:50:25;;;;;;;;;;;;;;;22.11;55.40;101462.88;5136896;27;1788;-59
2021/06/25 13:52:52;;;;;;;;;;;;;;;22.07;55.14;101451.47;5136913;27;1017;-58
2021/06/25 13:55:17;;;;;;;;;;;;;;;22.07;55.41;101462.34;5137390;27;1901;-59
2021/06/25 13:57:42;;;;;;;;;;;;;;;22.06;55.67;101455.19;5125921;27;1808;-59
2021/06/25 14:00:07;;;;;;;;;;;;;;;22.04;55.29;101459.09;5136888;27;1948;-58
2021/06/25 14:02:33;;;;;;;;;;;;;;;21.92;55.68;101453.03;5136658;27;1051;-59
2021/06/25 14:04:58;;;;;;;;;;;;;;;21.94;56.05;101451.03;5136293;27;822;-59
2021/06/25 14:07:23;;;;;;;;;;;;;;;21.99;55.46;101453.28;5126119;27;1720;-58
2021/06/25 14:09:49;;;;;;;;;;;;;;;21.96;55.64;101459.88;5116151;28;1075;-56
2021/06/25 14:12:14;;;;;;;;;;;;;;;21.94;55.84;101458.31;5116101;28;834;-58
2021/06/25 14:14:39;;;;;;;;;;;;;;;21.95;55.90;101462.72;5115929;28;1967;-58
2021/06/25 14:17:04;;;;;;;;;;;;;;;21.94;56.08;101467.31;5116475;28;1774;-60
2021/06/25 14:19:29;;;;;;;;;;;;;;;21.94;55.59;101466.47;5116177;28;1961;-58
2021/06/25 14:21:55;;;;;;;;;;;;;;;21.94;56.06;101469.16;5116297;28;842;-58
2021/06/25 14:24:21;;;;;;;;;;;;;;;21.91;56.12;101467.63;5126202;27;1704;-58
2021/06/25 14:26:46;;;;;;;;;;;;;;;21.93;55.86;101464.75;5135046;27;1614;-58
2021/06/25 14:29:13;;;;;;;;;;;;;;;21.89;55.73;101468.78;5133491;27;1469;-58
2021/06/25 14:31:38;;;;;;;;;;;;;;;21.85;56.13;101468.28;5136203;27;1699;-58
2021/06/25 14:34:03;;;;;;;;;;;;;;;21.82;56.19;101463.16;5136574;27;1898;-58
2021/06/25 14:36:28;;;;;;;;;;;;;;;21.87;56.05;101470.78;5129465;27;1830;-58
2021/06/25 14:38:53;;;;;;;;;;;;;;;21.88;55.93;101464.38;5133878;27;1700;-59
2021/06/25 14:41:18;;;;;;;;;;;;;;;21.89;55.57;101472.34;5135063;27;1505;-59
2021/06/25 14:43:43;;;;;;;;;;;;;;;21.89;55.86;101475.06;5136803;27;1660;-59
2021/06/25 14:46:08;;;;;;;;;;;;;;;21.82;55.54;101464.00;5119645;27;1754;-59
2021/06/25 14:48:35;;;;;;;;;;;;;;;21.79;55.80;101468.88;5116048;28;874;-58
2021/06/25 14:51:00;;;;;;;;;;;;;;;21.75;55.89;101462.06;5116213;28;805;-59
2021/06/25 14:53:25;;;;;;;;;;;;;;;21.74;55.96;101465.78;5116121;28;918;-59
2021/06/25 14:55:51;;;;;;;;;;;;;;;21.71;56.18;101476.94;5116422;28;1877;-58
2021/06/25 14:58:16;;;;;;;;;;;;;;;21.72;56.14;101462.38;5115652;28;851;-58
2021/06/25 15:00:41;;;;;;;;;;;;;;;21.72;55.61;101463.22;5115743;28;1005;-59
2021/06/25 15:03:06;;;;;;;;;;;;;;;21.73;55.58;101464.09;5115346;28;864;-59
2021/06/25 15:05:32;;;;;;;;;;;;;;;21.72;55.70;101463.22;5115457;28;972;-58
2021/06/25 15:07:57;;;;;;;;;;;;;;;21.69;55.42;101463.53;5116144;28;1843;-59
2021/06/25 15:10:22;;;;;;;;;;;;;;;21.67;55.56;101465.59;5115305;28;833;-58
2021/06/25 15:12:47;;;;;;;;;;;;;;;21.63;55.01;101468.75;5115209;28;1068;-58
2021/06/25 15:15:12;;;;;;;;;;;;;;;21.61;55.37;101460.78;5125305;27;1905;-58
2021/06/25 15:17:37;;;;;;;;;;;;;;;21.59;55.64;101461.94;5139539;27;912;-59
2021/06/25 15:20:02;;;;;;;;;;;;;;;21.61;56.02;101466.19;5140718;27;1555;-59
2021/06/25 15:22:27;;;;;;;;;;;;;;;21.59;55.93;101468.22;5131114;27;1428;-59
2021/06/25 15:24:52;;;;;;;;;;;;;;;21.57;56.00;101464.78;5130253;27;1899;-57
2021/06/25 15:27:17;;;;;;;;;;;;;;;21.59;55.95;101461.94;5134876;27;2263;-59
2021/06/25 15:29:43;;;;;;;;;;;;;;;21.59;55.97;101462.78;5135591;27;1780;-59
2021/06/25 15:32:08;;;;;;;;;;;;;;;21.61;55.22;101460.78;5124380;27;1728;-58
2021/06/25 15:34:33;;;;;;;;;;;;;;;21.60;55.33;101461.78;5127734;27;1925;-57
2021/06/25 15:36:58;;;;;;;;;;;;;;;21.61;55.20;101460.78;5139441;27;1956;-59
2021/06/25 15:39:23;;;;;;;;;;;;;;;21.61;55.56;101459.91;5139320;27;1625;-59
2021/06/25 15:41:48;;;;;;;;;;;;;;;21.58;55.67;101460.22;5139450;27;1576;-59
2021/06/25 15:44:13;;;;;;;;;;;;;;;21.55;55.40;101461.38;5138466;27;1534;-58
2021/06/25 15:46:38;;;;;;;;;;;;;;;21.55;55.41;101472.22;5134452;27;1679;-58
2021/06/25 15:49:03;;;;;;;;;;;;;;;21.52;55.30;101469.81;5137168;27;1668;-59
2021/06/25 15:51:28;;;;;;;;;;;;;;;21.51;55.24;101464.56;5139099;27;1674;-58
2021/06/25 15:53:53;;;;;;;;;;;;;;;21.52;56.01;101463.56;5131049;27;1901;-58
2021/06/25 15:56:18;;;;;;;;;;;;;;;21.51;56.06;101467.25;5133220;27;1507;-59
2021/06/25 15:58:44;;;;;;;;;;;;;;;21.53;55.87;101467.97;5127187;27;1646;-59
2021/06/25 16:01:09;;;;;;;;;;;;;;;21.54;55.66;101465.09;5126151;27;1689;-58
2021/06/25 16:03:34;;;;;;;;;;;;;;;21.54;55.71;101470.53;5123954;27;1662;-58
2021/06/25 16:05:59;;;;;;;;;;;;;;;21.55;55.96;101471.38;5126273;27;1681;-59
2021/06/25 16:09:08;;;;;;;;;;;;;;;21.52;55.36;101467.13;5125418;27;1697;-57
2021/06/25 16:11:20;;;;;;;;;;;;;;;21.50;55.41;101474.56;5121738;27;1867;-59
2021/06/25 16:13:46;;;;;;;;;;;;;;;21.53;55.68;101467.97;5123660;27;1498;-58
2021/06/25 16:16:12;;;;;;;;;;;;;;;21.49;55.91;101470.16;5122008;27;1894;-59
2021/06/25 16:18:37;;;;;;;;;;;;;;;21.48;55.76;101472.03;5126267;27;1543;-58
2021/06/25 16:21:02;;;;;;;;;;;;;;;21.50;55.75;101468.31;5126430;27;1828;-59
2021/06/25 16:23:27;;;;;;;;;;;;;;;21.50;56.32;101469.13;5118925;27;1886;-58
2021/06/25 16:25:52;;;;;;;;;;;;;;;21.50;55.66;101474.56;5120046;27;1721;-58
2021/06/25 16:28:17;;;;;;;;;;;;;;;21.51;56.26;101469.97;5128893;27;1718;-59
2021/06/25 16:30:42;;;;;;;;;;;;;;;21.47;56.24;101474.88;5122501;27;2257;-59
2021/06/25 16:33:07;;;;;;;;;;;;;;;21.45;56.95;101475.03;5123803;27;1763;-58
2021/06/25 16:35:32;;;;;;;;;;;;;;;21.46;57.04;101479.47;5122345;27;1949;-58
2021/06/25 16:37:57;;;;;;;;;;;;;;;21.45;56.69;101477.75;5117686;27;1929;-60
2021/06/25 16:40:22;;;;;;;;;;;;;;;21.47;56.55;101470.31;5130297;27;1606;-58
2021/06/25 16:42:48;;;;;;;;;;;;;;;21.49;56.44;101475.59;5127013;27;1761;-58
2021/06/25 16:45:13;;;;;;;;;;;;;;;21.49;56.11;101472.88;5132547;27;1704;-58
2021/06/25 16:47:38;;;;;;;;;;;;;;;21.49;56.80;101478.31;5134182;27;1709;-59
2021/06/25 16:50:03;;;;;;;;;;;;;;;21.46;56.88;101479.47;5132303;27;1820;-59
2021/06/25 16:52:28;;;;;;;;;;;;;;;21.47;57.02;101473.03;5131946;27;1589;-58
2021/06/25 16:54:53;;;;;;;;;;;;;;;21.45;56.75;101477.75;5129147;27;1890;-59
2021/06/25 16:57:18;;;;;;;;;;;;;;;21.45;57.07;101477.75;5126139;27;1709;-59
2021/06/25 16:59:43;;;;;;;;;;;;;;;21.44;57.44;101483.31;5106325;27;1472;-59
2021/06/25 17:02:08;;;;;;;;;;;;;;;21.42;57.12;101486.19;5123771;27;1745;-59
2021/06/25 17:04:33;;;;;;;;;;;;;;;21.41;57.73;101486.34;5127868;27;1725;-59
2021/06/25 17:06:59;;;;;;;;;;;;;;;21.41;57.85;101489.06;5123758;27;1541;-59
2021/06/25 17:09:24;;;;;;;;;;;;;;;21.36;57.29;101478.66;5124135;27;1736;-56
2021/06/25 17:11:49;;;;;;;;;;;;;;;21.33;57.25;101483.53;5126350;27;1717;-58
2021/06/25 17:14:14;;;;;;;;;;;;;;;21.35;57.41;101481.53;5121893;27;1913;-58
2021/06/25 17:16:39;;;;;;;;;;;;;;;21.37;57.41;101485.78;5126399;27;1723;-58
2021/06/25 17:19:04;;;;;;;;;;;;;;;21.39;57.35;101488.34;5125507;27;1741;-58
2021/06/25 17:21:31;;;;;;;;;;;;;;;21.38;57.44;101486.66;5122093;27;1730;-58
2021/06/25 17:23:57;;;;;;;;;;;;;;;21.37;57.43;101485.78;5118073;27;1563;-58
2021/06/25 17:26:22;;;;;;;;;;;;;;;21.39;57.73;101493.78;5122101;27;1896;-58
2021/06/25 17:28:47;;;;;;;;;;;;;;;21.38;57.61;101489.34;5124737;27;1789;-59
2021/06/25 17:31:12;;;;;;;;;;;;;;;21.33;57.78;101486.25;5119654;27;2394;-58
2021/06/25 17:33:37;;;;;;;;;;;;;;;21.35;57.82;101487.81;5119121;27;1916;-58
2021/06/25 17:36:02;;;;;;;;;;;;;;;21.34;57.76;101487.94;5127206;27;1953;-59
2021/06/25 17:38:28;;;;;;;;;;;;;;;21.34;57.06;101488.81;5124178;27;1759;-59
2021/06/25 17:40:54;;;;;;;;;;;;;;;21.34;57.51;101493.38;5124425;27;1614;-58
2021/06/25 17:43:19;;;;;;;;;;;;;;;21.31;57.69;101496.41;5121712;27;1652;-58
2021/06/25 17:45:44;;;;;;;;;;;;;;;21.30;57.74;101489.28;5127434;27;1700;-58
2021/06/25 17:48:09;;;;;;;;;;;;;;;21.28;57.88;101492.16;5137023;27;1643;-59
2021/06/25 17:50:34;;;;;;;;;;;;;;;21.29;57.23;101509.28;5137367;27;2283;-56
2021/06/25 17:53:00;;;;;;;;;;;;;;;21.28;57.85;101496.72;5128349;27;2008;-58
2021/06/25 17:55:25;;;;;;;;;;;;;;;21.27;58.09;101495.88;5131860;27;1956;-58
2021/06/25 17:57:50;;;;;;;;;;;;;;;21.25;57.36;101505.16;5133669;27;1571;-59
2021/06/25 18:00:15;;;;;;;;;;;;;;;21.25;57.13;101502.44;5128593;27;1578;-58
2021/06/25 18:02:40;;;;;;;;;;;;;;;21.27;57.18;101503.16;5128888;27;1823;-61
2021/06/25 18:05:05;;;;;;;;;;;;;;;21.26;57.30;101504.16;5113905;28;1473;-58
2021/06/25 18:07:30;;;;;;;;;;;;;;;21.25;57.41;101502.44;5125897;27;1629;-57
2021/06/25 18:09:55;;;;;;;;;;;;;;;21.24;57.81;101506.16;5121560;27;1822;-57
2021/06/25 18:12:20;;;;;;;;;;;;;;;21.24;57.90;101500.72;5127018;27;1674;-56
2021/06/25 18:14:46;;;;;;;;;;;;;;;21.24;57.88;101508.88;5129778;27;1918;-56
2021/06/25 18:17:14;;;;;;;;;;;;;;;21.24;58.12;101501.59;5136296;27;1798;-56
2021/06/25 18:19:39;;;;;;;;;;;;;;;21.22;58.13;101500.88;5136608;27;1604;-58
2021/06/25 18:22:04;;;;;;;;;;;;;;;21.21;58.15;101496.47;5135822;27;1933;-59
2021/06/25 18:24:29;;;;;;;;;;;;;;;21.20;58.17;101502.91;5135253;27;1602;-59
2021/06/25 18:26:54;;;;;;;;;;;;;;;21.21;57.93;101509.16;5136045;27;1629;-58
2021/06/25 18:29:19;;;;;;;;;;;;;;;21.20;57.74;101510.16;5117497;27;1723;-58
2021/06/25 18:31:44;;;;;;;;;;;;;;;21.19;58.87;101505.72;5117820;27;1559;-58
2021/06/25 18:34:12;;;;;;;;;;;;;;;21.20;57.99;101512.88;5131063;27;1897;-59
2021/06/25 18:36:37;;;;;;;;;;;;;;;21.20;57.92;101511.03;5129184;27;1734;-59
2021/06/25 18:39:03;;;;;;;;;;;;;;;21.28;58.37;101508.41;5127845;27;1882;-60
2021/06/25 18:41:28;;;;;;;;;;;;;;;21.34;58.42;101512.34;5135174;27;1573;-59
2021/06/25 18:43:53;;;;;;;;;;;;;;;21.39;58.93;101510.03;5133766;27;1857;-60
2021/06/25 18:46:18;;;;;;;;;;;;;;;21.40;61.38;101515.31;5136074;27;1881;-59
2021/06/25 18:48:43;;;;;;;;;;;;;;;21.35;62.73;101517.63;5135967;27;1970;-58
2021/06/25 18:51:08;;;;;;;;;;;;;;;21.35;62.53;101514.06;5135830;27;1729;-59
2021/06/25 18:53:34;;;;;;;;;;;;;;;21.29;62.94;101520.13;5134494;27;1823;-58
2021/06/25 18:55:59;;;;;;;;;;;;;;;21.20;67.32;101512.88;5124103;28;1950;-58
2021/06/25 18:58:24;;;;;;;;;;;;;;;21.12;64.65;101514.47;5135987;28;1987;-59
2021/06/25 19:00:50;;;;;;;;;;;;;;;21.11;66.70;101517.34;5133409;28;1696;-61
2021/06/25 19:03:16;;;;;;;;;;;;;;;21.11;66.72;101517.34;5123910;28;1564;-60
2021/06/25 19:05:41;;;;;;;;;;;;;;;21.09;66.13;101512.06;5126518;28;1622;-61
2021/06/25 19:08:06;;;;;;;;;;;;;;;21.09;67.50;101522.91;5128364;28;1840;-59
2021/06/25 19:10:31;;;;;;;;;;;;;;;21.07;67.78;101522.19;5120893;28;1647;-58
2021/06/25 19:12:56;;;;;;;;;;;;;;;21.07;67.87;101524.06;5118646;28;1842;-59
2021/06/25 19:15:21;;;;;;;;;;;;;;;21.06;67.39;101534.03;5129632;27;1905;-58
2021/06/25 19:17:46;;;;;;;;;;;;;;;21.07;68.21;101527.63;5118017;28;1651;-59
2021/06/25 19:20:11;;;;;;;;;;;;;;;21.05;67.74;101526.91;5117649;28;1723;-59
2021/06/25 19:22:36;;;;;;;;;;;;;;;21.03;69.39;101526.22;5120792;28;2001;-58
2021/06/25 19:25:01;;;;;;;;;;;;;;;21.01;69.34;101533.63;5118270;28;1702;-59
2021/06/25 19:27:26;;;;;;;;;;;;;;;21.01;69.64;101532.78;5119367;28;1667;-59
2021/06/25 19:29:52;;;;;;;;;;;;;;;20.98;69.58;101539.34;5114616;28;1717;-59
2021/06/25 19:32:17;;;;;;;;;;;;;;;20.95;70.94;101536.13;5118834;28;1532;-59